Time;durP1;ratioP1;P1;durP2;ratioP2;P2;SDS_P1;SDS_P2;PMS_P1;PMS_P2;Temp;Humidity;BMP_temperature;BMP_pressure;BME280_temperature;BME280_humidity;BME280_pressure;Samples;Min_cycle;Max_cycle;Signal;HPM_P1;HPM_P2
2022/07/26 00:01:17;;;;;;;;;;;21.60;99.90;;;;;;4119243;28;20404;-56
2022/07/26 00:03:19;;;;;;;;;;;21.50;99.90;;;;;;4116133;28;20298;-56
2022/07/26 00:05:21;;;;;;;;;;;21.30;99.90;;;;;;4112181;28;20444;-57
2022/07/26 00:07:23;;;;;;;;;;;21.00;99.90;;;;;;4114534;28;20086;-55
2022/07/26 00:09:25;;;;;;;;;;;20.90;99.90;;;;;;4127091;28;20137;-55
2022/07/26 00:11:29;;;;;;;;;;;20.80;99.90;;;;;;4118619;28;19992;-55
2022/07/26 00:13:32;;;;;;;;;;;20.80;99.90;;;;;;4120285;28;20285;-55
2022/07/26 00:15:35;;;;;;;;;;;20.80;99.90;;;;;;4118679;28;19922;-55
2022/07/26 00:17:37;;;;;;;;;;;20.80;99.90;;;;;;4119086;28;19922;-55
2022/07/26 00:19:39;;;;;;;;;;;20.50;99.90;;;;;;4118694;28;20395;-56
2022/07/26 00:21:41;;;;;;;;;;;20.50;99.90;;;;;;4116271;28;20394;-56
2022/07/26 00:23:43;;;;;;;;;;;20.40;99.90;;;;;;4119376;28;19926;-55
2022/07/26 00:25:45;;;;;;;;;;;20.40;99.90;;;;;;4119898;28;19953;-56
2022/07/26 00:27:47;;;;;;;;;;;20.40;99.90;;;;;;4128468;28;20024;-55
2022/07/26 00:29:49;;;;;;;;;;;20.40;99.90;;;;;;4129498;28;19929;-56
2022/07/26 00:31:51;;;;;;;;;;;20.40;99.90;;;;;;4115969;28;20012;-55
2022/07/26 00:33:53;;;;;;;;;;;20.50;99.90;;;;;;4127029;28;19988;-55
2022/07/26 00:35:55;;;;;;;;;;;20.50;99.90;;;;;;4122433;28;20378;-55
2022/07/26 00:37:57;;;;;;;;;;;20.50;99.90;;;;;;4126494;28;20282;-56
2022/07/26 00:39:59;;;;;;;;;;;20.30;99.90;;;;;;4126250;28;20012;-56
2022/07/26 00:42:01;;;;;;;;;;;20.20;99.90;;;;;;4115889;28;19926;-56
2022/07/26 00:44:03;;;;;;;;;;;20.10;99.90;;;;;;4120136;28;19934;-56
2022/07/26 00:46:05;;;;;;;;;;;20.10;99.90;;;;;;4118523;28;19977;-54
2022/07/26 00:48:07;;;;;;;;;;;20.10;99.90;;;;;;4122882;28;19930;-54
2022/07/26 00:50:11;;;;;;;;;;;20.10;99.90;;;;;;4140144;28;20431;-55
2022/07/26 00:52:13;;;;;;;;;;;20.10;99.90;;;;;;4119084;28;19933;-56
2022/07/26 00:54:15;;;;;;;;;;;20.10;99.90;;;;;;4121634;28;19929;-55
2022/07/26 00:56:17;;;;;;;;;;;20.00;99.90;;;;;;4122343;28;20377;-55
2022/07/26 00:58:19;;;;;;;;;;;20.00;99.90;;;;;;4114702;28;20293;-56
2022/07/26 01:00:25;;;;;;;;;;;20.00;99.90;;;;;;4116821;28;19922;-55
2022/07/26 01:02:27;;;;;;;;;;;20.00;99.90;;;;;;4117335;28;19976;-56
2022/07/26 01:04:29;;;;;;;;;;;20.10;99.90;;;;;;4115025;28;19929;-54
2022/07/26 01:06:31;;;;;;;;;;;20.20;99.90;;;;;;4127587;28;20288;-55
2022/07/26 01:08:33;;;;;;;;;;;20.40;99.90;;;;;;4125756;28;19975;-57
2022/07/26 01:10:35;;;;;;;;;;;20.50;99.90;;;;;;4114300;28;19926;-55
2022/07/26 01:12:37;;;;;;;;;;;20.40;99.90;;;;;;4126827;28;20370;-56
2022/07/26 01:14:43;;;;;;;;;;;20.40;99.90;;;;;;4127821;28;19921;-55
2022/07/26 01:16:45;;;;;;;;;;;20.50;99.90;;;;;;4121915;28;20377;-56
2022/07/26 01:18:47;;;;;;;;;;;20.50;99.90;;;;;;4119067;28;20481;-54
2022/07/26 01:20:49;;;;;;;;;;;20.50;99.90;;;;;;4121380;28;19922;-54
2022/07/26 01:22:51;;;;;;;;;;;20.40;99.90;;;;;;4127469;28;19922;-55
2022/07/26 01:24:53;;;;;;;;;;;20.00;99.90;;;;;;4121736;28;19929;-56
2022/07/26 01:26:55;;;;;;;;;;;19.80;99.90;;;;;;4123761;28;19922;-55
2022/07/26 01:28:57;;;;;;;;;;;19.70;99.90;;;;;;4129567;28;19926;-55
2022/07/26 01:30:59;;;;;;;;;;;19.80;99.90;;;;;;4121540;28;19969;-55
2022/07/26 01:33:01;;;;;;;;;;;19.90;99.90;;;;;;4115817;28;20393;-55
2022/07/26 01:35:04;;;;;;;;;;;19.80;99.90;;;;;;4118499;28;19957;-55
2022/07/26 01:37:06;;;;;;;;;;;19.60;99.90;;;;;;4126571;28;19929;-55
2022/07/26 01:39:07;;;;;;;;;;;19.50;99.90;;;;;;4113206;28;19996;-56
2022/07/26 01:41:10;;;;;;;;;;;19.70;99.90;;;;;;4128963;28;19976;-56
2022/07/26 01:43:12;;;;;;;;;;;19.70;99.90;;;;;;4121197;28;19925;-55
2022/07/26 01:45:13;;;;;;;;;;;19.60;99.90;;;;;;4117498;28;19926;-55
2022/07/26 01:47:15;;;;;;;;;;;19.40;99.90;;;;;;4124874;28;19960;-55
2022/07/26 01:49:18;;;;;;;;;;;19.30;99.90;;;;;;4118835;28;19921;-55
2022/07/26 01:51:20;;;;;;;;;;;19.40;99.90;;;;;;4116879;28;19929;-55
2022/07/26 01:53:22;;;;;;;;;;;19.20;99.90;;;;;;4123849;28;19997;-56
2022/07/26 01:55:24;;;;;;;;;;;18.90;99.90;;;;;;4113482;28;20033;-56
2022/07/26 01:57:26;;;;;;;;;;;18.70;99.90;;;;;;4115148;28;19926;-55
2022/07/26 01:59:28;;;;;;;;;;;18.70;99.90;;;;;;4118320;28;20413;-55
2022/07/26 02:01:30;;;;;;;;;;;18.70;99.90;;;;;;4117210;28;19968;-55
2022/07/26 02:03:40;;;;;;;;;;;18.80;99.90;;;;;;4122048;28;19929;-55
2022/07/26 02:05:42;;;;;;;;;;;18.70;99.90;;;;;;4119415;28;19922;-55
2022/07/26 02:07:44;;;;;;;;;;;19.00;99.90;;;;;;4121323;28;19992;-56
2022/07/26 02:09:46;;;;;;;;;;;19.10;99.90;;;;;;4120852;28;19926;-54
2022/07/26 02:11:48;;;;;;;;;;;19.10;99.90;;;;;;4116052;28;19964;-56
2022/07/26 02:13:50;;;;;;;;;;;19.20;99.90;;;;;;4127188;28;20341;-54
2022/07/26 02:15:53;;;;;;;;;;;19.30;99.90;;;;;;4122209;28;19926;-56
2022/07/26 02:17:55;;;;;;;;;;;19.30;99.90;;;;;;4119088;28;19930;-56
2022/07/26 02:19:58;;;;;;;;;;;19.30;99.90;;;;;;4113288;28;19975;-56
2022/07/26 02:22:00;;;;;;;;;;;19.20;99.90;;;;;;4115337;28;19953;-55
2022/07/26 02:24:02;;;;;;;;;;;19.00;99.90;;;;;;4113983;28;19969;-55
2022/07/26 02:26:04;;;;;;;;;;;18.90;99.90;;;;;;4127434;28;19925;-55
2022/07/26 02:28:06;;;;;;;;;;;18.70;99.90;;;;;;4122412;28;20440;-55
2022/07/26 02:30:08;;;;;;;;;;;18.60;99.90;;;;;;4113530;28;20301;-55
2022/07/26 02:32:10;;;;;;;;;;;18.60;99.90;;;;;;4119259;28;19968;-54
2022/07/26 02:34:12;;;;;;;;;;;18.60;99.90;;;;;;4127902;28;19921;-55
2022/07/26 02:36:14;;;;;;;;;;;18.60;99.90;;;;;;4128368;28;20476;-55
2022/07/26 02:38:16;;;;;;;;;;;18.60;99.90;;;;;;4120011;28;19933;-55
2022/07/26 02:40:18;;;;;;;;;;;18.60;99.90;;;;;;4112611;28;19922;-55
2022/07/26 02:42:20;;;;;;;;;;;18.60;99.90;;;;;;4127734;28;19922;-55
2022/07/26 02:44:22;;;;;;;;;;;18.70;99.90;;;;;;4120392;28;19926;-56
2022/07/26 02:46:24;;;;;;;;;;;18.90;99.90;;;;;;4112538;28;20383;-56
2022/07/26 02:48:26;;;;;;;;;;;18.70;99.90;;;;;;4126034;28;20317;-54
2022/07/26 02:50:28;;;;;;;;;;;18.70;99.90;;;;;;4117867;28;19925;-55
2022/07/26 02:52:30;;;;;;;;;;;18.70;99.90;;;;;;4122524;28;20356;-54
2022/07/26 02:54:32;;;;;;;;;;;18.70;99.90;;;;;;4112398;28;19961;-55
2022/07/26 02:56:34;;;;;;;;;;;18.60;99.90;;;;;;4114154;28;19933;-54
2022/07/26 02:58:37;;;;;;;;;;;18.50;99.90;;;;;;4119487;28;19930;-55
2022/07/26 03:00:38;;;;;;;;;;;18.50;99.90;;;;;;4122364;28;19968;-55
2022/07/26 03:02:41;;;;;;;;;;;18.40;99.90;;;;;;4127337;28;19983;-55
2022/07/26 03:04:43;;;;;;;;;;;18.30;99.90;;;;;;4118766;28;19925;-55
2022/07/26 03:06:45;;;;;;;;;;;18.20;99.90;;;;;;4117378;28;20301;-54
2022/07/26 03:08:47;;;;;;;;;;;18.10;99.90;;;;;;4126021;28;19922;-55
2022/07/26 03:10:49;;;;;;;;;;;18.10;99.90;;;;;;4113433;28;19930;-55
2022/07/26 03:12:51;;;;;;;;;;;18.10;99.90;;;;;;4125681;28;19928;-56
2022/07/26 03:14:53;;;;;;;;;;;18.00;99.90;;;;;;4112379;28;19922;-55
2022/07/26 03:16:55;;;;;;;;;;;18.00;99.90;;;;;;4117143;28;19929;-55
2022/07/26 03:18:58;;;;;;;;;;;18.10;99.90;;;;;;4117951;28;20412;-55
2022/07/26 03:21:01;;;;;;;;;;;18.20;99.90;;;;;;4112367;28;20662;-55
2022/07/26 03:23:03;;;;;;;;;;;18.10;99.90;;;;;;4119144;28;20381;-55
2022/07/26 03:25:05;;;;;;;;;;;18.10;99.90;;;;;;4112281;28;19980;-56
2022/07/26 03:27:07;;;;;;;;;;;18.10;99.90;;;;;;4119967;28;20409;-55
2022/07/26 03:29:09;;;;;;;;;;;18.20;99.90;;;;;;4119713;28;19953;-56
2022/07/26 03:31:12;;;;;;;;;;;18.20;99.90;;;;;;4122326;28;20374;-55
2022/07/26 03:33:14;;;;;;;;;;;18.40;99.90;;;;;;4127894;28;19933;-55
2022/07/26 03:35:16;;;;;;;;;;;18.50;99.90;;;;;;4121193;28;19930;-54
2022/07/26 03:37:18;;;;;;;;;;;18.60;99.90;;;;;;4122986;28;19958;-56
2022/07/26 03:39:20;;;;;;;;;;;18.70;99.90;;;;;;4119907;28;19922;-55
2022/07/26 03:41:22;;;;;;;;;;;18.60;99.90;;;;;;4117658;28;19952;-55
2022/07/26 03:43:24;;;;;;;;;;;18.60;99.90;;;;;;4115864;28;19926;-55
2022/07/26 03:45:26;;;;;;;;;;;18.60;99.90;;;;;;4117064;28;19930;-55
2022/07/26 03:47:28;;;;;;;;;;;18.50;99.90;;;;;;4118888;28;20333;-55
2022/07/26 03:49:29;;;;;;;;;;;18.50;99.90;;;;;;4127721;28;20305;-55
2022/07/26 03:51:32;;;;;;;;;;;18.60;99.90;;;;;;4121198;28;19926;-55
2022/07/26 03:53:34;;;;;;;;;;;18.50;99.90;;;;;;4117295;28;20080;-56
2022/07/26 03:57:58;;;;;;;;;;;18.60;99.90;;;;;;4127345;28;20294;-55
2022/07/26 04:00:00;;;;;;;;;;;18.70;99.90;;;;;;4127732;28;20337;-55
2022/07/26 04:02:02;;;;;;;;;;;18.70;99.90;;;;;;4115718;28;19922;-55
2022/07/26 04:04:04;;;;;;;;;;;18.70;99.90;;;;;;4125998;28;20143;-55
2022/07/26 04:06:06;;;;;;;;;;;18.60;99.90;;;;;;4117012;28;19925;-55
2022/07/26 04:08:09;;;;;;;;;;;18.60;99.90;;;;;;4118046;28;19925;-54
2022/07/26 04:10:11;;;;;;;;;;;18.40;99.90;;;;;;4125423;28;20319;-54
2022/07/26 04:12:14;;;;;;;;;;;18.30;99.90;;;;;;4120201;28;20347;-55
2022/07/26 04:14:16;;;;;;;;;;;18.30;99.90;;;;;;4116200;28;19926;-56
2022/07/26 04:16:18;;;;;;;;;;;18.20;99.90;;;;;;4115346;28;20275;-56
2022/07/26 04:18:20;;;;;;;;;;;18.00;99.90;;;;;;4116671;28;19926;-56
2022/07/26 04:20:22;;;;;;;;;;;17.90;99.90;;;;;;4122135;28;19929;-55
2022/07/26 04:22:24;;;;;;;;;;;17.70;99.90;;;;;;4116465;28;20612;-55
2022/07/26 04:24:26;;;;;;;;;;;17.70;99.90;;;;;;4130525;28;19930;-56
2022/07/26 04:26:29;;;;;;;;;;;17.90;99.90;;;;;;4125439;28;19929;-54
2022/07/26 04:28:32;;;;;;;;;;;18.00;99.90;;;;;;4116177;28;19930;-55
2022/07/26 04:30:34;;;;;;;;;;;18.10;99.90;;;;;;4125468;28;19937;-55
2022/07/26 04:32:36;;;;;;;;;;;18.10;99.90;;;;;;4115943;28;19965;-56
2022/07/26 04:34:38;;;;;;;;;;;18.00;99.90;;;;;;4114908;28;20337;-56
2022/07/26 04:36:40;;;;;;;;;;;18.00;99.90;;;;;;4114522;28;19926;-54
2022/07/26 04:38:42;;;;;;;;;;;18.00;99.90;;;;;;4125554;28;19929;-54
2022/07/26 04:40:44;;;;;;;;;;;18.10;99.90;;;;;;4126663;28;19956;-55
2022/07/26 04:42:47;;;;;;;;;;;18.20;99.90;;;;;;4122463;28;19933;-55
2022/07/26 04:44:49;;;;;;;;;;;18.20;99.90;;;;;;4122393;28;20420;-55
2022/07/26 04:46:50;;;;;;;;;;;18.30;99.90;;;;;;4113440;28;20275;-55
2022/07/26 04:48:52;;;;;;;;;;;18.30;99.90;;;;;;4121062;28;20296;-54
2022/07/26 04:50:54;;;;;;;;;;;18.30;99.90;;;;;;4123466;28;20437;-55
2022/07/26 04:52:56;;;;;;;;;;;18.30;99.90;;;;;;4125282;28;19930;-55
2022/07/26 04:54:58;;;;;;;;;;;18.40;99.90;;;;;;4113190;28;19926;-56
2022/07/26 04:57:00;;;;;;;;;;;18.30;99.90;;;;;;4129287;28;19921;-55
2022/07/26 04:59:02;;;;;;;;;;;18.30;99.90;;;;;;4125968;28;19968;-55
2022/07/26 05:01:04;;;;;;;;;;;18.30;99.90;;;;;;4123718;28;20020;-55
2022/07/26 05:03:11;;;;;;;;;;;18.30;99.90;;;;;;4117325;28;20311;-55
2022/07/26 05:05:13;;;;;;;;;;;18.30;99.90;;;;;;4116087;28;19922;-55
2022/07/26 05:07:16;;;;;;;;;;;18.30;99.90;;;;;;4119699;28;19925;-56
2022/07/26 05:09:17;;;;;;;;;;;18.30;99.90;;;;;;4115896;28;20390;-55
2022/07/26 05:11:19;;;;;;;;;;;18.20;99.90;;;;;;4121572;28;20432;-55
2022/07/26 05:13:21;;;;;;;;;;;18.20;99.90;;;;;;4121427;28;19921;-53
2022/07/26 05:15:31;;;;;;;;;;;18.30;99.90;;;;;;4128485;28;19922;-55
2022/07/26 05:17:37;;;;;;;;;;;18.40;99.90;;;;;;4118950;28;20378;-57
2022/07/26 05:19:39;;;;;;;;;;;18.50;99.90;;;;;;4113984;28;19926;-56
2022/07/26 05:21:41;;;;;;;;;;;18.50;99.90;;;;;;4120056;28;19929;-56
2022/07/26 05:23:42;;;;;;;;;;;18.50;99.90;;;;;;4121523;28;19953;-56
2022/07/26 05:25:45;;;;;;;;;;;18.50;99.90;;;;;;4129280;28;20651;-56
2022/07/26 05:27:46;;;;;;;;;;;18.60;99.90;;;;;;4116909;28;20333;-56
2022/07/26 05:29:48;;;;;;;;;;;18.60;99.90;;;;;;4113447;28;19930;-56
2022/07/26 05:31:50;;;;;;;;;;;18.60;99.90;;;;;;4113528;28;20307;-57
2022/07/26 05:33:53;;;;;;;;;;;18.70;99.90;;;;;;4126724;28;19976;-56
2022/07/26 05:35:55;;;;;;;;;;;18.70;99.90;;;;;;4120137;28;19949;-56
2022/07/26 05:37:57;;;;;;;;;;;18.70;99.90;;;;;;4125897;28;19922;-56
2022/07/26 05:39:59;;;;;;;;;;;18.80;99.90;;;;;;4114582;28;19976;-56
2022/07/26 05:42:01;;;;;;;;;;;18.80;99.90;;;;;;4125199;28;19928;-56
2022/07/26 05:44:03;;;;;;;;;;;18.90;99.90;;;;;;4124436;28;19960;-57
2022/07/26 05:46:05;;;;;;;;;;;18.90;99.90;;;;;;4117671;28;19972;-56
2022/07/26 05:48:10;;;;;;;;;;;18.90;99.90;;;;;;4124017;28;19960;-55
2022/07/26 05:50:12;;;;;;;;;;;19.00;99.90;;;;;;4127185;28;19929;-56
2022/07/26 05:52:14;;;;;;;;;;;19.00;99.90;;;;;;4122280;28;20314;-56
2022/07/26 05:54:16;;;;;;;;;;;19.10;99.90;;;;;;4113487;28;20374;-57
2022/07/26 05:56:19;;;;;;;;;;;19.20;99.90;;;;;;4116058;28;19926;-57
2022/07/26 05:58:21;;;;;;;;;;;19.30;99.90;;;;;;4120968;28;19922;-56
2022/07/26 06:00:23;;;;;;;;;;;19.40;99.90;;;;;;4121995;28;19973;-56
2022/07/26 06:02:25;;;;;;;;;;;19.60;99.90;;;;;;4121003;28;20429;-56
2022/07/26 06:04:27;;;;;;;;;;;19.70;99.90;;;;;;4113271;28;19930;-57
2022/07/26 06:06:29;;;;;;;;;;;19.90;99.90;;;;;;4121267;28;20266;-56
2022/07/26 06:08:31;;;;;;;;;;;19.80;99.90;;;;;;4122516;28;19926;-56
2022/07/26 06:10:33;;;;;;;;;;;19.90;99.90;;;;;;4123395;28;19926;-56
2022/07/26 06:12:35;;;;;;;;;;;20.20;99.90;;;;;;4123284;28;19926;-58
2022/07/26 06:14:37;;;;;;;;;;;20.40;99.90;;;;;;4117180;28;20400;-55
2022/07/26 06:16:39;;;;;;;;;;;20.60;99.90;;;;;;4121702;28;19926;-56
2022/07/26 06:18:41;;;;;;;;;;;20.50;99.90;;;;;;4120010;28;19941;-56
2022/07/26 06:20:44;;;;;;;;;;;20.40;99.90;;;;;;4113466;28;19928;-57
2022/07/26 06:22:46;;;;;;;;;;;20.50;99.90;;;;;;4122049;28;20289;-58
2022/07/26 06:24:48;;;;;;;;;;;20.50;99.90;;;;;;4123856;28;19961;-55
2022/07/26 06:26:52;;;;;;;;;;;20.70;99.90;;;;;;4123803;28;19926;-58
2022/07/26 06:28:57;;;;;;;;;;;20.80;99.90;;;;;;4117372;28;19930;-57
2022/07/26 06:30:59;;;;;;;;;;;20.90;99.90;;;;;;4119304;28;19926;-56
2022/07/26 06:33:01;;;;;;;;;;;21.00;99.90;;;;;;4126923;28;19933;-56
2022/07/26 06:35:04;;;;;;;;;;;21.10;99.90;;;;;;4118261;28;19933;-57
2022/07/26 06:37:05;;;;;;;;;;;21.20;99.90;;;;;;4122051;28;19922;-57
2022/07/26 06:39:08;;;;;;;;;;;21.30;99.90;;;;;;4113393;28;19934;-56
2022/07/26 06:41:10;;;;;;;;;;;21.30;99.90;;;;;;4118676;28;19922;-57
2022/07/26 06:43:11;;;;;;;;;;;21.60;99.90;;;;;;4116793;28;19926;-57
2022/07/26 06:45:13;;;;;;;;;;;21.60;99.90;;;;;;4121562;28;19973;-57
2022/07/26 06:47:15;;;;;;;;;;;21.50;99.90;;;;;;4126577;28;19922;-57
2022/07/26 06:49:19;;;;;;;;;;;21.60;99.90;;;;;;4113655;28;19930;-57
2022/07/26 06:51:23;;;;;;;;;;;21.60;99.90;;;;;;4113119;28;19957;-56
2022/07/26 06:53:25;;;;;;;;;;;21.90;99.90;;;;;;4127045;28;19928;-57
2022/07/26 06:55:27;;;;;;;;;;;22.50;99.90;;;;;;4114048;28;19929;-57
2022/07/26 06:57:29;;;;;;;;;;;22.60;99.90;;;;;;4120085;28;19972;-57
2022/07/26 06:59:31;;;;;;;;;;;22.90;99.90;;;;;;4127081;28;19926;-56
2022/07/26 07:01:33;;;;;;;;;;;22.80;99.90;;;;;;4111522;28;19926;-56
2022/07/26 07:03:55;;;;;;;;;;;22.80;99.90;;;;;;4116828;28;20284;-57
2022/07/26 07:05:57;;;;;;;;;;;22.80;99.90;;;;;;4115513;28;19930;-57
2022/07/26 07:07:58;;;;;;;;;;;22.80;99.90;;;;;;4123650;28;20401;-57
2022/07/26 07:10:01;;;;;;;;;;;23.00;99.90;;;;;;4135231;28;19922;-56
2022/07/26 07:12:04;;;;;;;;;;;23.00;99.90;;;;;;4121899;28;19961;-57
2022/07/26 07:14:10;;;;;;;;;;;23.30;99.90;;;;;;4113630;28;19929;-55
2022/07/26 07:16:12;;;;;;;;;;;23.50;99.90;;;;;;4112567;28;20043;-56
2022/07/26 07:18:14;;;;;;;;;;;23.70;99.90;;;;;;4000807;28;75297;-57
2022/07/26 07:20:16;;;;;;;;;;;23.80;99.90;;;;;;4119940;28;20456;-57
2022/07/26 07:22:18;;;;;;;;;;;24.30;99.90;;;;;;4114473;28;19930;-57
2022/07/26 07:24:20;;;;;;;;;;;24.20;99.90;;;;;;4112504;28;19922;-57
2022/07/26 07:26:22;;;;;;;;;;;24.20;99.90;;;;;;4112660;28;19922;-58
2022/07/26 07:28:25;;;;;;;;;;;24.50;99.90;;;;;;4116857;28;19945;-56
2022/07/26 07:30:27;;;;;;;;;;;24.80;99.90;;;;;;4117729;28;19968;-57
2022/07/26 07:32:29;;;;;;;;;;;24.80;99.90;;;;;;4112487;28;19922;-57
2022/07/26 07:34:31;;;;;;;;;;;24.80;99.90;;;;;;4115874;28;20358;-57
2022/07/26 07:36:33;;;;;;;;;;;24.50;99.90;;;;;;4123271;28;19980;-57
2022/07/26 07:38:35;;;;;;;;;;;24.60;99.90;;;;;;4127145;28;19926;-57
2022/07/26 07:40:38;;;;;;;;;;;24.90;99.90;;;;;;4117520;28;20393;-57
2022/07/26 07:42:40;;;;;;;;;;;25.10;99.90;;;;;;4123185;28;19983;-58
2022/07/26 07:44:42;;;;;;;;;;;25.10;99.90;;;;;;4123980;28;19976;-57
2022/07/26 07:46:43;;;;;;;;;;;25.40;99.90;;;;;;4126251;28;19977;-56
2022/07/26 07:48:45;;;;;;;;;;;25.60;99.90;;;;;;4125903;28;19973;-57
2022/07/26 07:50:48;;;;;;;;;;;25.90;99.90;;;;;;4126187;28;19930;-56
2022/07/26 07:52:50;;;;;;;;;;;26.00;99.90;;;;;;4120346;28;20020;-57
2022/07/26 07:54:52;;;;;;;;;;;26.20;99.90;;;;;;4120925;28;19957;-58
2022/07/26 07:57:07;;;;;;;;;;;26.10;99.90;;;;;;4119787;28;19929;-57
2022/07/26 07:59:09;;;;;;;;;;;25.80;99.90;;;;;;4123026;28;19938;-57
2022/07/26 08:01:11;;;;;;;;;;;25.90;99.90;;;;;;4122265;28;19981;-58
2022/07/26 08:03:14;;;;;;;;;;;25.60;99.90;;;;;;4122651;28;20384;-57
2022/07/26 08:05:18;;;;;;;;;;;25.80;99.90;;;;;;4117212;28;19926;-58
2022/07/26 08:07:20;;;;;;;;;;;26.20;99.90;;;;;;4127735;28;19921;-56
2022/07/26 08:09:22;;;;;;;;;;;26.50;99.90;;;;;;4129706;28;19921;-56
2022/07/26 08:11:24;;;;;;;;;;;26.70;99.90;;;;;;4119999;28;20394;-57
2022/07/26 08:13:26;;;;;;;;;;;27.00;99.90;;;;;;4123682;28;20069;-56
2022/07/26 08:15:28;;;;;;;;;;;27.40;99.90;;;;;;4124858;28;19937;-56
2022/07/26 08:17:30;;;;;;;;;;;27.60;99.90;;;;;;4124207;28;20380;-57
2022/07/26 08:19:32;;;;;;;;;;;27.10;99.90;;;;;;4122592;28;19965;-58
2022/07/26 08:21:44;;;;;;;;;;;27.00;99.90;;;;;;4132416;28;19926;-58
2022/07/26 08:23:46;;;;;;;;;;;27.10;99.90;;;;;;4127800;28;19922;-56
2022/07/26 08:25:48;;;;;;;;;;;27.20;99.90;;;;;;4116257;28;20028;-56
2022/07/26 08:27:57;;;;;;;;;;;27.30;99.90;;;;;;4128658;28;19957;-58
2022/07/26 08:30:12;;;;;;;;;;;27.70;99.90;;;;;;4122978;28;19926;-57
2022/07/26 08:32:15;;;;;;;;;;;27.80;99.90;;;;;;4125827;28;19981;-57
2022/07/26 08:34:17;;;;;;;;;;;27.80;99.90;;;;;;4124378;28;20003;-57
2022/07/26 08:36:19;;;;;;;;;;;28.00;99.90;;;;;;4131741;28;20363;-56
2022/07/26 08:38:21;;;;;;;;;;;28.10;99.90;;;;;;4129669;28;19953;-56
2022/07/26 08:40:23;;;;;;;;;;;28.00;99.90;;;;;;4118802;28;19929;-57
2022/07/26 08:42:25;;;;;;;;;;;27.90;99.90;;;;;;4116800;28;20181;-57
2022/07/26 08:44:27;;;;;;;;;;;27.60;99.90;;;;;;4118344;28;19945;-57
2022/07/26 08:46:29;;;;;;;;;;;27.70;99.90;;;;;;4119076;28;20386;-57
2022/07/26 08:48:31;;;;;;;;;;;28.00;99.90;;;;;;4125251;28;19928;-56
2022/07/26 08:50:39;;;;;;;;;;;28.30;99.90;;;;;;4127250;28;20304;-56
2022/07/26 08:52:41;;;;;;;;;;;28.30;99.90;;;;;;4129450;28;20260;-57
2022/07/26 08:54:45;;;;;;;;;;;28.50;99.90;;;;;;4123687;28;19932;-57
2022/07/26 08:56:51;;;;;;;;;;;28.40;99.90;;;;;;4116940;28;20277;-56
2022/07/26 08:58:53;;;;;;;;;;;28.60;99.90;;;;;;4125068;28;19953;-58
2022/07/26 09:01:10;;;;;;;;;;;28.40;99.90;;;;;;4121699;28;19926;-58
2022/07/26 09:03:25;;;;;;;;;;;28.50;99.90;;;;;;4131055;28;19947;-57
2022/07/26 09:05:28;;;;;;;;;;;28.50;99.90;;;;;;4124847;28;20274;-57
2022/07/26 09:07:31;;;;;;;;;;;28.50;99.90;;;;;;4122865;28;20436;-57
2022/07/26 09:09:35;;;;;;;;;;;28.60;99.90;;;;;;4121707;28;19926;-57
2022/07/26 09:11:37;;;;;;;;;;;28.70;99.90;;;;;;4123005;28;19984;-57
2022/07/26 09:13:49;;;;;;;;;;;28.80;99.90;;;;;;4116334;28;19930;-57
2022/07/26 09:16:08;;;;;;;;;;;28.90;99.90;;;;;;4116115;28;20396;-56
2022/07/26 09:18:36;;;;;;;;;;;29.10;99.90;;;;;;4124984;28;19960;-56
2022/07/26 09:20:45;;;;;;;;;;;29.50;99.90;;;;;;4129926;28;19968;-57
2022/07/26 09:22:58;;;;;;;;;;;29.10;98.70;;;;;;4130059;28;19929;-57
2022/07/26 09:25:01;;;;;;;;;;;29.00;99.90;;;;;;4124914;28;20025;-57
2022/07/26 09:27:04;;;;;;;;;;;29.00;99.90;;;;;;4114180;28;19989;-56
2022/07/26 09:29:10;;;;;;;;;;;29.10;99.90;;;;;;4127171;28;20374;-58
2022/07/26 09:31:21;;;;;;;;;;;29.10;99.90;;;;;;4126141;28;19926;-57
2022/07/26 09:33:23;;;;;;;;;;;29.10;99.90;;;;;;4116862;28;20413;-56
2022/07/26 09:35:26;;;;;;;;;;;29.20;99.90;;;;;;4130034;28;19944;-57
2022/07/26 09:37:48;;;;;;;;;;;29.30;99.90;;;;;;4124491;28;20135;-57
2022/07/26 09:39:57;;;;;;;;;;;29.30;99.90;;;;;;4113909;28;19926;-56
2022/07/26 09:42:05;;;;;;;;;;;29.70;99.90;;;;;;4127217;28;19929;-59
2022/07/26 09:44:27;;;;;;;;;;;29.80;99.90;;;;;;4129955;28;19921;-57
2022/07/26 09:46:30;;;;;;;;;;;30.30;99.90;;;;;;4130226;28;20024;-57
2022/07/26 09:48:32;;;;;;;;;;;30.40;99.90;;;;;;4129530;28;20146;-56
2022/07/26 09:50:54;;;;;;;;;;;30.80;99.60;;;;;;4129882;28;19921;-56
2022/07/26 09:53:14;;;;;;;;;;;30.80;99.20;;;;;;4129774;28;20203;-57
2022/07/26 09:55:16;;;;;;;;;;;30.70;99.60;;;;;;4113877;28;19926;-57
2022/07/26 09:57:19;;;;;;;;;;;30.90;99.90;;;;;;4122383;28;19926;-57
2022/07/26 09:59:22;;;;;;;;;;;31.40;99.90;;;;;;4129208;28;20257;-56
2022/07/26 10:01:25;;;;;;;;;;;31.50;99.90;;;;;;4114041;28;19922;-57
2022/07/26 10:03:28;;;;;;;;;;;31.70;98.10;;;;;;4120300;28;19965;-58
2022/07/26 10:05:33;;;;;;;;;;;31.70;97.50;;;;;;4129772;28;19922;-57
2022/07/26 10:07:36;;;;;;;;;;;31.70;99.90;;;;;;4120240;28;19972;-58
2022/07/26 10:09:46;;;;;;;;;;;31.60;98.10;;;;;;4129511;28;20378;-57
2022/07/26 10:11:56;;;;;;;;;;;31.30;98.50;;;;;;4129262;28;19975;-57
2022/07/26 10:13:58;;;;;;;;;;;31.40;99.50;;;;;;4129367;28;19921;-56
2022/07/26 10:16:00;;;;;;;;;;;31.10;99.10;;;;;;4124486;28;19922;-56
2022/07/26 10:18:03;;;;;;;;;;;31.00;98.90;;;;;;4122332;28;19948;-56
2022/07/26 10:20:07;;;;;;;;;;;30.80;98.40;;;;;;4129422;28;19972;-59
2022/07/26 10:22:22;;;;;;;;;;;30.90;98.50;;;;;;4129092;28;19926;-58
2022/07/26 10:24:28;;;;;;;;;;;30.90;98.30;;;;;;4129041;28;19968;-57
2022/07/26 10:26:29;;;;;;;;;;;31.50;98.40;;;;;;4117220;28;19926;-57
2022/07/26 10:28:32;;;;;;;;;;;32.20;98.60;;;;;;4115795;28;19926;-57
2022/07/26 10:30:34;;;;;;;;;;;32.50;96.80;;;;;;4123080;28;19929;-57
2022/07/26 10:32:36;;;;;;;;;;;32.80;97.40;;;;;;4129536;28;20036;-58
2022/07/26 10:34:39;;;;;;;;;;;32.90;96.80;;;;;;4128124;28;19934;-56
2022/07/26 10:36:41;;;;;;;;;;;32.60;96.10;;;;;;4113145;28;19949;-56
2022/07/26 10:38:56;;;;;;;;;;;32.50;96.80;;;;;;4121339;28;20029;-56
2022/07/26 10:40:59;;;;;;;;;;;32.40;96.00;;;;;;4128342;28;19926;-56
2022/07/26 10:43:11;;;;;;;;;;;32.60;96.50;;;;;;4126242;28;19925;-57
2022/07/26 10:45:33;;;;;;;;;;;32.90;97.00;;;;;;4126684;28;20563;-58
2022/07/26 10:47:36;;;;;;;;;;;33.30;96.90;;;;;;4124403;28;19929;-56
2022/07/26 10:49:55;;;;;;;;;;;33.50;96.50;;;;;;4128111;28;19948;-57
2022/07/26 10:52:23;;;;;;;;;;;33.30;96.00;;;;;;4124592;28;20571;-56
2022/07/26 10:54:25;;;;;;;;;;;33.50;95.60;;;;;;4127810;28;19929;-57
2022/07/26 10:56:28;;;;;;;;;;;33.90;95.90;;;;;;4128157;28;19929;-56
2022/07/26 10:58:41;;;;;;;;;;;34.20;95.80;;;;;;4127082;28;19932;-57
2022/07/26 11:00:53;;;;;;;;;;;34.20;95.60;;;;;;4126820;28;19925;-57
2022/07/26 11:02:56;;;;;;;;;;;34.20;94.00;;;;;;4127428;28;19926;-57
2022/07/26 11:04:59;;;;;;;;;;;33.80;94.20;;;;;;4128979;28;20560;-59
2022/07/26 11:07:01;;;;;;;;;;;33.80;95.60;;;;;;4124701;28;19926;-57
2022/07/26 11:09:10;;;;;;;;;;;33.90;95.70;;;;;;4128753;28;19975;-58
2022/07/26 11:11:12;;;;;;;;;;;33.90;93.90;;;;;;4119752;28;19976;-57
2022/07/26 11:13:18;;;;;;;;;;;33.90;94.80;;;;;;4128167;28;19944;-57
2022/07/26 11:15:20;;;;;;;;;;;34.10;95.10;;;;;;4128730;28;19925;-57
2022/07/26 11:17:23;;;;;;;;;;;33.40;93.60;;;;;;4124584;28;19921;-58
2022/07/26 11:19:26;;;;;;;;;;;33.50;94.60;;;;;;4118171;28;19984;-57
2022/07/26 11:21:28;;;;;;;;;;;33.70;94.40;;;;;;4125433;28;19925;-57
2022/07/26 11:23:31;;;;;;;;;;;34.20;96.20;;;;;;4121589;28;19964;-57
2022/07/26 11:25:33;;;;;;;;;;;34.30;94.70;;;;;;4128725;28;19925;-57
2022/07/26 11:27:35;;;;;;;;;;;34.40;93.50;;;;;;4128745;28;19925;-57
2022/07/26 11:29:37;;;;;;;;;;;34.50;94.00;;;;;;4121332;28;19966;-57
2022/07/26 11:31:43;;;;;;;;;;;34.50;94.50;;;;;;4113061;28;19925;-56
2022/07/26 11:33:51;;;;;;;;;;;34.10;94.40;;;;;;4127715;28;19932;-57
2022/07/26 11:35:53;;;;;;;;;;;33.60;94.50;;;;;;4122382;28;19976;-57
2022/07/26 11:37:56;;;;;;;;;;;33.30;95.40;;;;;;4127094;28;19922;-58
2022/07/26 11:40:10;;;;;;;;;;;33.30;95.50;;;;;;4127354;28;19972;-56
2022/07/26 11:42:13;;;;;;;;;;;33.10;95.40;;;;;;4123113;28;19932;-56
2022/07/26 11:44:20;;;;;;;;;;;33.10;95.00;;;;;;4123838;28;19932;-57
2022/07/26 11:46:23;;;;;;;;;;;32.80;95.40;;;;;;4117084;28;19926;-57
2022/07/26 11:48:24;;;;;;;;;;;32.70;95.70;;;;;;4116267;28;20052;-57
2022/07/26 11:50:26;;;;;;;;;;;32.50;95.40;;;;;;4128608;28;19922;-57
2022/07/26 11:52:30;;;;;;;;;;;32.60;95.20;;;;;;4128365;28;20577;-57
2022/07/26 11:54:42;;;;;;;;;;;32.80;95.60;;;;;;4126006;28;20020;-57
2022/07/26 11:56:50;;;;;;;;;;;33.00;95.90;;;;;;4112428;28;19922;-57
2022/07/26 11:58:53;;;;;;;;;;;33.00;96.00;;;;;;4123485;28;20005;-57
2022/07/26 12:00:55;;;;;;;;;;;33.10;95.30;;;;;;4125951;28;19922;-56